createdAt,value
2019-01-21T00:01:36.222Z,2.90
2019-01-21T00:05:50.662Z,3.00
2019-01-21T00:10:04.179Z,3.10
2019-01-21T00:14:16.485Z,3.10
2019-01-21T00:18:28.681Z,3.20
2019-01-21T00:22:41.393Z,3.20
2019-01-21T00:26:53.838Z,3.20
2019-01-21T00:31:06.052Z,3.00
2019-01-21T00:35:18.430Z,2.90
2019-01-21T00:39:31.316Z,2.80
2019-01-21T00:43:43.603Z,2.80
2019-01-21T00:47:55.706Z,2.90
2019-01-21T00:52:07.922Z,3.00
2019-01-21T00:56:20.124Z,3.00
2019-01-21T01:00:32.732Z,3.00
2019-01-21T01:04:45.177Z,3.00
2019-01-21T01:08:57.346Z,3.00
2019-01-21T01:13:09.480Z,3.00
2019-01-21T01:17:21.686Z,3.00
2019-01-21T01:21:34.311Z,3.10
2019-01-21T01:25:46.845Z,3.00
2019-01-21T01:29:59.030Z,2.90
2019-01-21T01:34:11.822Z,2.90
2019-01-21T01:38:24.478Z,2.90
2019-01-21T01:42:36.687Z,2.90
2019-01-21T01:46:49.013Z,3.00
2019-01-21T01:51:01.815Z,3.00
2019-01-21T01:55:14.442Z,3.00
2019-01-21T01:59:27.150Z,3.00
2019-01-21T02:03:39.505Z,2.90
2019-01-21T02:07:51.815Z,2.80
2019-01-21T02:12:04.767Z,2.90
2019-01-21T02:16:17.265Z,2.80
2019-01-21T02:20:29.482Z,2.70
2019-01-21T02:24:44.303Z,2.70
2019-01-21T02:29:08.700Z,2.60
2019-01-21T02:33:57.877Z,2.50
2019-01-21T02:38:45.511Z,2.50
2019-01-21T02:43:28.571Z,2.50
2019-01-21T02:47:59.867Z,2.50
2019-01-21T02:52:30.445Z,2.40
2019-01-21T02:56:56.459Z,2.40
2019-01-21T03:01:51.053Z,2.30
2019-01-21T03:06:38.836Z,2.20
2019-01-21T03:11:05.984Z,2.20
2019-01-21T03:16:14.011Z,2.30
2019-01-21T03:20:37.067Z,2.20
2019-01-21T03:25:35.667Z,2.20
2019-01-21T03:30:22.190Z,2.10
2019-01-21T03:35:20.180Z,2.20
2019-01-21T03:40:20.634Z,2.20
2019-01-21T03:44:47.000Z,2.20
2019-01-21T03:49:08.875Z,2.10
2019-01-21T03:53:26.742Z,2.10
2019-01-21T03:57:55.555Z,2.00
2019-01-21T04:02:29.979Z,2.00
2019-01-21T04:07:31.521Z,2.00
2019-01-21T04:12:07.495Z,2.00
2019-01-21T04:16:47.325Z,1.90
2019-01-21T04:21:23.243Z,1.90
2019-01-21T04:26:10.583Z,1.80
2019-01-21T04:31:07.107Z,1.90
2019-01-21T04:35:51.346Z,2.00
2019-01-21T04:40:59.359Z,2.10
2019-01-21T04:45:28.936Z,2.20
2019-01-21T04:50:22.965Z,2.20
2019-01-21T04:55:12.403Z,2.10
2019-01-21T04:59:55.618Z,1.90
2019-01-21T05:04:31.513Z,1.70
2019-01-21T05:09:18.606Z,1.50
2019-01-21T05:14:03.779Z,1.50
2019-01-21T05:18:41.002Z,1.50
2019-01-21T05:23:42.306Z,1.40
2019-01-21T05:28:24.023Z,1.30
2019-01-21T05:33:15.172Z,1.30
2019-01-21T05:38:06.938Z,1.20
2019-01-21T05:42:52.608Z,1.20
2019-01-21T05:47:39.011Z,1.20
2019-01-21T05:52:17.970Z,1.00
2019-01-21T05:57:01.309Z,0.80
2019-01-21T06:01:52.802Z,0.90
2019-01-21T06:06:31.982Z,0.90
2019-01-21T06:11:15.409Z,0.90
2019-01-21T06:15:59.752Z,0.90
2019-01-21T06:20:49.170Z,0.80
2019-01-21T06:25:51.959Z,0.70
2019-01-21T06:30:29.795Z,0.80
2019-01-21T06:35:06.986Z,0.90
2019-01-21T06:39:56.994Z,1.10
2019-01-21T06:45:10.720Z,1.10
2019-01-21T06:50:06.250Z,1.00
2019-01-21T06:55:19.940Z,1.00
2019-01-21T07:00:12.658Z,0.90
2019-01-21T07:05:09.414Z,0.90
2019-01-21T07:09:52.562Z,0.90
2019-01-21T07:14:48.487Z,1.00
2019-01-21T07:19:30.381Z,0.90
2019-01-21T07:24:20.495Z,0.90
2019-01-21T07:29:10.794Z,0.80
2019-01-21T07:33:46.182Z,0.80
2019-01-21T07:38:29.178Z,0.70
2019-01-21T07:43:23.651Z,0.60
2019-01-21T07:48:15.201Z,0.50
2019-01-21T07:53:10.424Z,0.50
2019-01-21T07:58:21.157Z,0.70
2019-01-21T08:03:27.012Z,0.60
2019-01-21T08:08:00.801Z,0.70
2019-01-21T08:12:55.431Z,0.70
2019-01-21T08:18:12.737Z,0.80
2019-01-21T08:23:05.211Z,0.90
2019-01-21T08:27:56.488Z,1.10
2019-01-21T08:32:47.543Z,1.40
2019-01-21T08:37:13.191Z,1.40
2019-01-21T08:41:42.616Z,1.40
2019-01-21T08:46:21.470Z,1.60
2019-01-21T08:50:50.715Z,1.70
2019-01-21T08:55:38.700Z,1.90
2019-01-21T09:00:35.378Z,2.10
2019-01-21T09:04:57.327Z,1.90
2019-01-21T09:09:28.610Z,1.80
2019-01-21T09:14:06.233Z,2.00
2019-01-21T09:18:58.934Z,2.40
2019-01-21T09:23:35.299Z,2.60
2019-01-21T09:28:25.465Z,2.80
2019-01-21T09:33:01.003Z,2.90
2019-01-21T09:37:50.088Z,3.20
2019-01-21T09:42:38.709Z,3.60
2019-01-21T09:46:49.163Z,4.00
2019-01-21T09:51:06.379Z,4.20
2019-01-21T09:55:19.503Z,4.30
2019-01-21T09:59:34.179Z,4.30
2019-01-21T10:03:47.031Z,4.30
2019-01-21T10:08:14.170Z,4.30
2019-01-21T10:13:07.834Z,4.40
2019-01-21T10:17:51.263Z,4.50
2019-01-21T10:22:42.795Z,4.60
2019-01-21T10:27:49.991Z,4.70
2019-01-21T10:32:44.815Z,4.70
2019-01-21T10:37:26.807Z,4.80
2019-01-21T10:42:34.525Z,4.90
2019-01-21T10:47:32.795Z,4.90
2019-01-21T10:52:40.435Z,5.10
2019-01-21T10:57:32.779Z,5.20
2019-01-21T11:02:37.354Z,5.40
2019-01-21T11:07:48.467Z,5.50
2019-01-21T11:12:40.753Z,5.60
2019-01-21T11:17:25.097Z,5.70
2019-01-21T11:22:05.089Z,5.80
2019-01-21T11:26:52.493Z,6.10
2019-01-21T11:31:57.471Z,6.30
2019-01-21T11:36:45.199Z,6.60
2019-01-21T11:41:33.678Z,6.60
2019-01-21T11:46:32.547Z,6.70
2019-01-21T11:50:58.519Z,6.80
2019-01-21T11:55:53.168Z,7.00
2019-01-21T12:00:34.291Z,7.20
2019-01-21T12:05:02.102Z,7.30
2019-01-21T12:10:00.276Z,7.30
2019-01-21T12:15:01.724Z,7.40
2019-01-21T12:19:43.951Z,7.50
2019-01-21T12:24:22.378Z,7.60
2019-01-21T12:29:02.081Z,7.70
2019-01-21T12:33:46.078Z,7.90
2019-01-21T12:38:37.932Z,7.90
2019-01-21T12:43:12.462Z,8.00
2019-01-21T12:47:56.248Z,8.20
2019-01-21T12:52:31.160Z,8.10
2019-01-21T12:57:19.617Z,8.20
2019-01-21T13:02:09.293Z,8.40
2019-01-21T13:06:40.987Z,8.50
2019-01-21T13:11:12.817Z,8.50
2019-01-21T13:15:43.055Z,8.50
2019-01-21T13:20:30.742Z,8.60
2019-01-21T13:25:16.299Z,8.50
2019-01-21T13:30:03.153Z,8.50
2019-01-21T13:34:42.064Z,8.60
2019-01-21T13:39:43.228Z,8.50
2019-01-21T13:44:22.848Z,8.40
2019-01-21T13:49:01.511Z,8.40
2019-01-21T13:53:58.958Z,8.40
2019-01-21T13:58:51.435Z,8.40
2019-01-21T14:04:02.319Z,8.50
2019-01-21T14:08:21.500Z,8.50
2019-01-21T14:13:08.364Z,8.40
2019-01-21T14:17:53.807Z,8.40
2019-01-21T14:22:58.538Z,8.40
2019-01-21T14:27:58.754Z,8.40
2019-01-21T14:32:51.866Z,8.40
2019-01-21T14:37:24.852Z,8.40
2019-01-21T14:41:58.874Z,8.50
2019-01-21T14:46:53.513Z,8.50
2019-01-21T14:51:44.558Z,8.50
2019-01-21T14:56:06.624Z,8.50
2019-01-21T15:01:16.427Z,8.40
2019-01-21T15:06:00.315Z,8.40
2019-01-21T15:10:47.231Z,8.50
2019-01-21T15:15:52.348Z,8.50
2019-01-21T15:20:13.378Z,8.60
2019-01-21T15:25:01.713Z,8.60
2019-01-21T15:29:33.978Z,8.50
2019-01-21T15:34:28.751Z,8.40
2019-01-21T15:39:17.041Z,8.30
2019-01-21T15:43:52.948Z,8.20
2019-01-21T15:48:34.867Z,8.20
2019-01-21T15:53:15.151Z,8.00
2019-01-21T15:57:40.632Z,7.90
2019-01-21T16:02:36.735Z,7.80
2019-01-21T16:07:10.490Z,7.70
2019-01-21T16:11:50.107Z,7.60
2019-01-21T16:17:00.747Z,7.70
2019-01-21T16:21:58.891Z,7.60
2019-01-21T16:26:24.195Z,7.60
2019-01-21T16:30:52.511Z,7.60
2019-01-21T16:35:24.578Z,7.60
2019-01-21T16:40:08.401Z,7.60
2019-01-21T16:44:20.877Z,7.50
2019-01-21T16:48:33.374Z,7.50
2019-01-21T16:52:46.382Z,7.50
2019-01-21T16:56:58.687Z,7.50
2019-01-21T17:01:11.527Z,7.50
2019-01-21T17:05:24.042Z,7.50
2019-01-21T17:09:37.593Z,7.60
2019-01-21T17:13:50.042Z,7.60
2019-01-21T17:18:02.425Z,7.60
2019-01-21T17:22:15.139Z,7.60
2019-01-21T17:26:27.718Z,7.60
2019-01-21T17:30:39.934Z,7.70
2019-01-21T17:34:52.211Z,7.80
2019-01-21T17:39:06.814Z,7.80
2019-01-21T17:43:19.191Z,7.80
2019-01-21T17:47:31.639Z,7.90
2019-01-21T17:51:44.443Z,7.90
2019-01-21T17:55:56.761Z,7.90
2019-01-21T18:00:10.871Z,7.90
2019-01-21T18:04:23.384Z,7.80
2019-01-21T18:08:35.757Z,7.70
2019-01-21T18:12:47.962Z,7.60
2019-01-21T18:17:00.288Z,7.60
2019-01-21T18:21:12.943Z,7.70
2019-01-21T18:25:25.302Z,7.70
2019-01-21T18:29:37.507Z,7.80
2019-01-21T18:33:49.747Z,7.80
2019-01-21T18:38:03.040Z,7.90
2019-01-21T18:42:16.705Z,7.90
2019-01-21T18:46:29.198Z,7.90
2019-01-21T18:50:41.942Z,7.80
2019-01-21T18:54:54.319Z,7.80
2019-01-21T18:59:10.921Z,7.70
2019-01-21T19:03:23.107Z,7.70
2019-01-21T19:07:35.185Z,7.90
2019-01-21T19:11:47.779Z,7.90
2019-01-21T19:16:00.399Z,8.00
2019-01-21T19:20:13.608Z,8.10
2019-01-21T19:24:26.110Z,8.10
2019-01-21T19:28:38.405Z,8.10
2019-01-21T19:32:53.376Z,8.20
2019-01-21T19:37:05.943Z,8.20
2019-01-21T19:41:18.680Z,8.20
2019-01-21T19:45:31.035Z,8.20
2019-01-21T19:49:43.260Z,8.20
2019-01-21T19:53:55.543Z,8.30
2019-01-21T19:58:08.667Z,8.40
2019-01-21T20:02:21.663Z,8.50
2019-01-21T20:06:36.772Z,8.50
2019-01-21T20:10:49.239Z,8.60
2019-01-21T20:15:02.710Z,8.70
2019-01-21T20:19:15.221Z,8.70
2019-01-21T20:23:27.503Z,8.70
2019-01-21T20:27:40.020Z,8.70
2019-01-21T20:31:52.387Z,8.80
2019-01-21T20:36:05.040Z,8.80
2019-01-21T20:40:20.788Z,8.80
2019-01-21T20:44:33.314Z,8.90
2019-01-21T20:48:45.826Z,8.90
2019-01-21T20:52:58.186Z,8.80
2019-01-21T20:57:10.824Z,8.80
2019-01-21T21:01:26.231Z,8.90
2019-01-21T21:05:38.606Z,8.90
2019-01-21T21:09:51.164Z,9.00
2019-01-21T21:14:04.019Z,9.00
2019-01-21T21:18:16.235Z,9.00
2019-01-21T21:22:28.316Z,9.10
2019-01-21T21:26:40.442Z,9.10
2019-01-21T21:30:53.114Z,9.20
2019-01-21T21:35:06.160Z,9.20
2019-01-21T21:39:18.314Z,9.20
2019-01-21T21:43:31.005Z,9.20
2019-01-21T21:47:43.570Z,9.10
2019-01-21T21:51:55.876Z,9.10
2019-01-21T21:56:08.045Z,9.10
2019-01-21T22:00:22.921Z,9.00
2019-01-21T22:04:35.119Z,9.00
2019-01-21T22:08:47.267Z,9.00
2019-01-21T22:12:59.378Z,9.00
2019-01-21T22:17:11.479Z,9.00
2019-01-21T22:21:24.278Z,9.10
2019-01-21T22:25:36.862Z,9.10
2019-01-21T22:29:49.162Z,9.10
2019-01-21T22:34:01.533Z,9.00
2019-01-21T22:38:14.259Z,9.00
2019-01-21T22:42:26.703Z,8.80
2019-01-21T22:46:39.220Z,8.80
2019-01-21T22:50:52.143Z,8.80
2019-01-21T22:55:04.770Z,8.80
2019-01-21T22:59:17.574Z,8.80
2019-01-21T23:03:30.900Z,8.90
2019-01-21T23:07:43.589Z,8.90
2019-01-21T23:11:55.876Z,9.00
2019-01-21T23:16:08.175Z,9.00
2019-01-21T23:20:20.980Z,9.00
2019-01-21T23:24:33.440Z,9.10
2019-01-21T23:28:45.634Z,9.10
2019-01-21T23:32:57.930Z,9.20
2019-01-21T23:37:10.223Z,9.20
2019-01-21T23:41:22.955Z,9.20
2019-01-21T23:45:35.428Z,9.10
2019-01-21T23:49:47.939Z,9.10
2019-01-21T23:54:00.616Z,9.10
2019-01-21T23:58:13.058Z,9.20
